Time;durP1;ratioP1;P1;durP2;ratioP2;P2;SDS_P1;SDS_P2;PMS_P1;PMS_P2;Temp;Humidity;BMP_temperature;BMP_pressure;BME280_temperature;BME280_humidity;BME280_pressure;Samples;Min_cycle;Max_cycle;Signal;HPM_P1;HPM_P2
2021/12/11 00:00:28;;;;;;;6.90;4.38;;;8.90;99.00;;;;;;5012943;28;20092;-70
2021/12/11 00:03:17;;;;;;;8.18;4.00;;;8.90;98.80;;;;;;5013415;28;20474;-69
2021/12/11 00:05:47;;;;;;;9.00;4.60;;;8.90;99.00;;;;;;5003649;28;20429;-73
2021/12/11 00:08:18;;;;;;;8.40;4.25;;;8.90;99.00;;;;;;5012812;28;20026;-74
2021/12/11 00:10:52;;;;;;;7.10;4.28;;;8.90;99.10;;;;;;5012755;28;20034;-74
2021/12/11 00:13:23;;;;;;;8.02;4.25;;;9.00;99.30;;;;;;5012690;28;20026;-73
2021/12/11 00:15:49;;;;;;;7.93;4.60;;;9.00;99.00;;;;;;5013139;28;20052;-75
2021/12/11 00:18:22;;;;;;;8.48;4.95;;;9.00;99.00;;;;;;5012811;28;20071;-75
2021/12/11 00:21:08;;;;;;;7.47;4.43;;;9.00;99.00;;;;;;5012837;28;20044;-74
2021/12/11 00:23:41;;;;;;;5.57;3.33;;;9.10;99.30;;;;;;5012626;28;20015;-75
2021/12/11 00:26:09;;;;;;;6.93;4.25;;;9.10;99.20;;;;;;5013063;28;20072;-73
2021/12/11 00:28:49;;;;;;;6.93;4.20;;;9.10;99.10;;;;;;5012952;28;20448;-74
2021/12/11 00:31:17;;;;;;;6.93;4.53;;;9.10;99.20;;;;;;5016808;28;20058;-75
2021/12/11 00:33:43;;;;;;;7.43;4.35;;;9.00;99.20;;;;;;5016787;28;20337;-75
2021/12/11 00:36:13;;;;;;;8.18;4.32;;;9.10;99.20;;;;;;5016900;28;20034;-74
2021/12/11 00:38:39;;;;;;;9.30;4.13;;;9.10;99.30;;;;;;4999109;28;20076;-73
2021/12/11 00:41:11;;;;;;;7.55;4.40;;;9.10;99.40;;;;;;5016746;28;20092;-72
2021/12/11 00:43:40;;;;;;;7.70;4.80;;;9.10;99.40;;;;;;5016771;28;20022;-74
2021/12/11 00:46:22;;;;;;;7.38;4.43;;;9.10;99.30;;;;;;5016597;28;20042;-71
2021/12/11 00:48:48;;;;;;;7.22;4.00;;;9.10;99.30;;;;;;5016118;28;20053;-72
2021/12/11 00:51:17;;;;;;;7.10;4.10;;;9.10;99.60;;;;;;5016548;28;20029;-73
2021/12/11 00:53:54;;;;;;;7.38;3.80;;;9.00;99.20;;;;;;5016609;28;20034;-73
2021/12/11 00:56:25;;;;;;;7.20;3.95;;;9.10;99.40;;;;;;5016676;28;20026;-74
2021/12/11 00:58:55;;;;;;;6.40;3.75;;;9.10;99.20;;;;;;5016958;28;20113;-71
2021/12/11 01:01:30;;;;;;;6.88;3.70;;;9.10;99.20;;;;;;5016508;28;20131;-72
2021/12/11 01:04:01;;;;;;;6.72;3.53;;;9.10;99.20;;;;;;5016407;28;20033;-73
2021/12/11 01:06:30;;;;;;;6.65;4.03;;;9.10;98.90;;;;;;5016212;28;20026;-73
2021/12/11 01:09:09;;;;;;;6.78;3.75;;;9.10;99.00;;;;;;5016306;28;20021;-73
2021/12/11 01:12:02;;;;;;;6.65;3.30;;;9.10;99.00;;;;;;5015926;28;20032;-72
2021/12/11 01:14:49;;;;;;;5.63;3.47;;;9.10;99.00;;;;;;5016014;28;20018;-71
2021/12/11 01:17:48;;;;;;;6.00;3.40;;;9.10;98.80;;;;;;5015846;28;20026;-73
2021/12/11 01:20:34;;;;;;;4.90;3.00;;;9.10;99.00;;;;;;5016048;28;20125;-72
2021/12/11 01:23:03;;;;;;;5.40;3.03;;;9.10;98.90;;;;;;5015915;28;20049;-70
2021/12/11 01:25:29;;;;;;;5.22;3.25;;;9.10;98.80;;;;;;5015789;28;20105;-76
2021/12/11 01:28:01;;;;;;;4.38;2.88;;;9.10;98.90;;;;;;5015811;28;20100;-71
2021/12/11 01:30:35;;;;;;;4.90;2.70;;;9.10;98.90;;;;;;4981785;28;20062;-72
2021/12/11 01:33:04;;;;;;;4.72;2.55;;;9.00;98.70;;;;;;5015782;28;20032;-71
2021/12/11 01:35:30;;;;;;;5.68;2.97;;;9.00;98.80;;;;;;5015527;28;20021;-71
2021/12/11 01:38:23;;;;;;;5.90;3.35;;;9.00;98.70;;;;;;5015479;28;20045;-71
2021/12/11 01:40:52;;;;;;;5.20;3.00;;;9.00;98.70;;;;;;5008805;28;20041;-70
2021/12/11 01:43:22;;;;;;;4.18;2.67;;;9.10;98.80;;;;;;5015466;28;20427;-70
2021/12/11 01:45:51;;;;;;;4.22;2.55;;;9.10;98.70;;;;;;5015515;28;20053;-71
2021/12/11 01:48:24;;;;;;;4.85;2.65;;;9.00;98.70;;;;;;5015302;28;20034;-70
2021/12/11 01:50:54;;;;;;;;;;;9.00;98.60;;;;;;5015766;28;20080;-70
2021/12/11 01:53:25;;;;;;;4.30;2.63;;;9.00;98.50;;;;;;5015345;28;19924;-70
2021/12/11 01:56:01;;;;;;;5.80;3.30;;;8.90;98.60;;;;;;5015332;28;20021;-69
2021/12/11 01:58:36;;;;;;;4.22;2.78;;;8.90;98.80;;;;;;5015277;28;20028;-70
2021/12/11 02:01:11;;;;;;;4.88;3.20;;;8.90;98.90;;;;;;5015115;28;20118;-70
2021/12/11 02:03:37;;;;;;;4.88;2.75;;;8.90;98.90;;;;;;5015060;28;20471;-71
2021/12/11 02:06:04;;;;;;;4.30;2.83;;;8.90;98.70;;;;;;5015150;28;20034;-74
2021/12/11 02:08:34;;;;;;;4.78;2.60;;;8.90;98.90;;;;;;5015137;28;20037;-75
2021/12/11 02:11:22;;;;;;;4.70;3.00;;;8.90;98.80;;;;;;5015071;28;20030;-73
2021/12/11 02:13:55;;;;;;;4.15;2.70;;;8.90;98.70;;;;;;5014544;28;20042;-74
2021/12/11 02:16:49;;;;;;;3.90;2.75;;;8.90;98.50;;;;;;4997377;28;20038;-73
2021/12/11 02:19:32;;;;;;;5.03;2.75;;;9.00;98.80;;;;;;5011982;28;20049;-73
2021/12/11 02:22:12;;;;;;;5.40;2.97;;;9.00;98.60;;;;;;5015013;28;20034;-74
2021/12/11 02:24:54;;;;;;;4.25;2.40;;;8.90;98.50;;;;;;5014803;28;20395;-73
2021/12/11 02:27:24;;;;;;;4.90;2.97;;;8.90;98.50;;;;;;5014785;28;20036;-74
2021/12/11 02:30:29;;;;;;;4.82;2.67;;;8.80;98.70;;;;;;5014955;28;20487;-75
2021/12/11 02:33:09;;;;;;;3.53;2.38;;;8.70;98.90;;;;;;4954362;28;20039;-74
2021/12/11 02:35:47;;;;;;;4.75;2.65;;;8.60;99.00;;;;;;5009485;28;20402;-74
2021/12/11 02:38:36;;;;;;;4.22;2.40;;;8.50;99.10;;;;;;5016079;28;20022;-76
2021/12/11 02:41:21;;;;;;;3.88;2.40;;;8.50;99.30;;;;;;5014437;28;20096;-72
2021/12/11 02:44:15;;;;;;;3.53;2.20;;;8.60;99.40;;;;;;5014643;28;20030;-72
2021/12/11 02:46:53;;;;;;;4.43;2.10;;;8.60;99.20;;;;;;5014531;28;20030;-74
2021/12/11 02:49:32;;;;;;;4.13;2.13;;;8.60;99.20;;;;;;5014202;28;20490;-73
2021/12/11 02:52:10;;;;;;;4.03;1.80;;;8.50;99.20;;;;;;5013860;28;20029;-75
2021/12/11 02:54:39;;;;;;;3.20;1.73;;;8.50;99.10;;;;;;5014277;28;20101;-75
2021/12/11 02:57:11;;;;;;;2.85;1.60;;;8.50;98.80;;;;;;5014150;28;20116;-75
2021/12/11 02:59:42;;;;;;;2.30;1.50;;;8.60;98.80;;;;;;5014065;28;20022;-70
2021/12/11 03:02:16;;;;;;;3.00;1.60;;;8.50;98.60;;;;;;5014072;28;20033;-75
2021/12/11 03:04:51;;;;;;;2.42;1.40;;;8.60;98.70;;;;;;5014277;28;20030;-73
2021/12/11 03:07:23;;;;;;;2.42;1.50;;;8.60;98.50;;;;;;5013973;28;20026;-75
2021/12/11 03:09:54;;;;;;;3.47;1.98;;;8.50;98.70;;;;;;5013897;28;20041;-71
2021/12/11 03:12:22;;;;;;;3.95;1.95;;;8.50;98.60;;;;;;4996616;28;20030;-71
2021/12/11 03:14:48;;;;;;;2.70;1.90;;;8.50;98.60;;;;;;5014487;28;20475;-71
2021/12/11 03:17:16;;;;;;;4.25;2.13;;;8.50;98.50;;;;;;5013823;28;20387;-72
2021/12/11 03:19:44;;;;;;;4.38;2.60;;;8.50;98.60;;;;;;5013631;28;20061;-73
2021/12/11 03:22:14;;;;;;;4.35;2.30;;;8.50;98.80;;;;;;5013758;28;20079;-74
2021/12/11 03:24:40;;;;;;;5.47;3.33;;;8.50;98.90;;;;;;5013702;28;20026;-72
2021/12/11 03:27:07;;;;;;;6.03;3.55;;;8.50;99.10;;;;;;5013585;28;20029;-72
2021/12/11 03:29:33;;;;;;;6.05;3.90;;;8.50;99.40;;;;;;5013563;28;20022;-73
2021/12/11 03:32:00;;;;;;;6.00;3.95;;;8.40;99.60;;;;;;5013506;28;20036;-73
2021/12/11 03:34:27;;;;;;;6.18;3.80;;;8.30;99.90;;;;;;5013505;28;20426;-73
2021/12/11 03:36:56;;;;;;;5.78;4.10;;;8.30;99.90;;;;;;5013381;28;20037;-73
2021/12/11 03:39:30;;;;;;;7.70;3.78;;;8.30;99.90;;;;;;5013183;28;20021;-73
2021/12/11 03:41:57;;;;;;;;;;;8.30;99.90;;;;;;5013677;28;20053;-73
2021/12/11 03:44:23;;;;;;;6.10;3.95;;;8.20;99.90;;;;;;5013375;28;19929;-76
2021/12/11 03:46:53;;;;;;;6.35;4.20;;;8.20;99.90;;;;;;5014119;28;20113;-75
2021/12/11 03:49:22;;;;;;;6.35;4.18;;;8.20;99.90;;;;;;5013152;28;20538;-73
2021/12/11 03:51:50;;;;;;;6.38;4.28;;;8.10;99.90;;;;;;5013104;28;20029;-73
2021/12/11 03:54:24;;;;;;;5.40;3.88;;;8.00;99.90;;;;;;5013138;28;20475;-70
2021/12/11 03:56:50;;;;;;;7.25;3.92;;;8.00;99.90;;;;;;5013272;28;20022;-70
2021/12/11 03:59:16;;;;;;;6.35;4.22;;;8.00;99.90;;;;;;5013152;28;20425;-69
2021/12/11 04:01:52;;;;;;;7.72;4.10;;;8.00;99.90;;;;;;5012919;28;20049;-70
2021/12/11 04:04:29;;;;;;;6.07;4.47;;;8.00;99.90;;;;;;5012433;28;20064;-70
2021/12/11 04:06:57;;;;;;;6.57;4.63;;;8.00;99.90;;;;;;5013336;28;20502;-69
2021/12/11 04:09:25;;;;;;;5.65;4.22;;;8.00;99.90;;;;;;5016337;28;20022;-71
2021/12/11 04:11:55;;;;;;;5.88;4.47;;;7.90;99.90;;;;;;5013029;28;20479;-69
2021/12/11 04:14:27;;;;;;;5.75;4.07;;;7.90;99.90;;;;;;4995229;28;20022;-69
2021/12/11 04:16:54;;;;;;;6.57;4.57;;;7.90;99.90;;;;;;5012842;28;20049;-69
2021/12/11 04:19:21;;;;;;;6.90;4.85;;;7.90;99.90;;;;;;4995039;28;20026;-72
2021/12/11 04:21:47;;;;;;;6.10;4.13;;;7.90;99.90;;;;;;5012705;28;20034;-72
2021/12/11 04:24:16;;;;;;;6.55;4.60;;;7.90;99.90;;;;;;5012802;28;20050;-71
2021/12/11 04:26:45;;;;;;;6.78;4.80;;;7.90;99.90;;;;;;5012836;28;20398;-70
2021/12/11 04:29:11;;;;;;;6.40;4.88;;;7.80;99.90;;;;;;5012688;28;20030;-70
2021/12/11 04:31:41;;;;;;;6.45;4.85;;;7.80;99.90;;;;;;5012787;28;20041;-71
2021/12/11 04:34:08;;;;;;;6.10;4.65;;;7.70;99.90;;;;;;5012901;28;20051;-70
2021/12/11 04:36:39;;;;;;;6.93;5.18;;;7.70;99.90;;;;;;5012699;28;20412;-71
2021/12/11 04:39:12;;;;;;;6.55;4.88;;;7.70;99.90;;;;;;5012704;28;20471;-71
2021/12/11 04:41:50;;;;;;;6.00;4.60;;;7.70;99.90;;;;;;5012575;28;20076;-70
2021/12/11 04:44:27;;;;;;;6.32;4.47;;;7.70;99.90;;;;;;5012697;28;20022;-70
2021/12/11 04:46:53;;;;;;;4.82;3.45;;;7.60;99.90;;;;;;5012673;28;20057;-69
2021/12/11 04:49:36;;;;;;;3.90;2.50;;;7.60;99.90;;;;;;5012177;28;20082;-70
2021/12/11 04:52:10;;;;;;;3.92;2.25;;;7.50;99.90;;;;;;5012554;28;20034;-70
2021/12/11 05:00:07;;;;;;;2.97;1.60;;;7.30;99.90;;;;;;5012460;28;20038;-74
2021/12/11 05:11:10;;;;;;;0.60;0.60;;;7.20;99.90;;;;;;5012409;28;20026;-73
2021/12/11 05:13:36;;;;;;;0.80;0.70;;;7.10;99.90;;;;;;5012478;28;20080;-74
2021/12/11 05:16:06;;;;;;;0.90;0.70;;;7.10;99.90;;;;;;5014179;28;20041;-73
2021/12/11 05:18:34;;;;;;;1.00;0.80;;;7.10;99.90;;;;;;5016046;28;20026;-73
2021/12/11 05:21:07;;;;;;;0.60;0.60;;;7.10;99.90;;;;;;5016065;28;20124;-74
2021/12/11 05:23:33;;;;;;;0.57;0.57;;;7.10;99.90;;;;;;5015849;28;20065;-72
2021/12/11 05:25:59;;;;;;;1.08;0.65;;;7.10;99.90;;;;;;5015843;28;20115;-72
2021/12/11 05:28:25;;;;;;;0.60;0.60;;;7.10;99.70;;;;;;5016261;28;20025;-71
2021/12/11 05:30:53;;;;;;;1.00;0.68;;;7.00;99.60;;;;;;5016212;28;20475;-72
2021/12/11 05:33:20;;;;;;;0.60;0.50;;;7.10;99.60;;;;;;5016678;28;20132;-73
2021/12/11 05:35:47;;;;;;;0.80;0.68;;;7.00;99.60;;;;;;5016640;28;20030;-72
2021/12/11 05:38:15;;;;;;;3.20;1.30;;;7.00;99.60;;;;;;5015601;28;20455;-73
2021/12/11 05:40:49;;;;;;;2.22;0.60;;;7.00;99.60;;;;;;5015568;28;20030;-71
2021/12/11 05:43:16;;;;;;;;;;;7.00;99.70;;;;;;5016214;28;20467;-70
2021/12/11 05:45:42;;;;;;;0.85;0.60;;;7.00;99.50;;;;;;5015638;28;19922;-72
2021/12/11 05:48:08;;;;;;;1.15;0.50;;;7.00;99.60;;;;;;5015477;28;20034;-73
2021/12/11 05:50:39;;;;;;;0.75;0.40;;;7.00;99.40;;;;;;5015637;28;20128;-72
2021/12/11 05:53:06;;;;;;;0.35;0.35;;;6.90;99.40;;;;;;5015691;28;20092;-70
2021/12/11 05:55:33;;;;;;;1.48;0.50;;;6.90;99.40;;;;;;5015561;28;20060;-73
2021/12/11 05:58:09;;;;;;;0.55;0.50;;;6.90;99.40;;;;;;5015402;28;20030;-76
2021/12/11 06:00:40;;;;;;;0.70;0.40;;;6.90;99.20;;;;;;5015331;28;20042;-74
2021/12/11 06:03:07;;;;;;;0.73;0.50;;;6.90;99.20;;;;;;5015157;28;20113;-75
2021/12/11 06:05:33;;;;;;;0.50;0.50;;;6.90;99.00;;;;;;4997776;28;20328;-70
2021/12/11 06:08:00;;;;;;;0.50;0.40;;;6.90;99.00;;;;;;5015084;28;20101;-70
2021/12/11 06:10:27;;;;;;;1.63;0.90;;;6.80;99.00;;;;;;5015245;28;20033;-70
2021/12/11 06:12:58;;;;;;;1.05;0.70;;;6.80;98.90;;;;;;4997673;28;20029;-75
2021/12/11 06:15:25;;;;;;;0.50;0.50;;;6.80;98.70;;;;;;5015869;28;20022;-74
2021/12/11 06:17:51;;;;;;;2.58;0.50;;;6.80;98.90;;;;;;4997524;28;20133;-74
2021/12/11 06:20:24;;;;;;;1.67;0.70;;;6.80;98.90;;;;;;4997263;28;20049;-76
2021/12/11 06:22:50;;;;;;;0.40;0.40;;;6.90;98.80;;;;;;5015040;28;20026;-70
2021/12/11 06:25:20;;;;;;;2.10;0.50;;;7.00;98.70;;;;;;5014896;28;20479;-71
2021/12/11 06:27:46;;;;;;;0.47;0.45;;;7.00;98.50;;;;;;5013776;28;20078;-72
2021/12/11 06:30:14;;;;;;;1.85;0.57;;;7.00;98.30;;;;;;5014601;28;20133;-73
2021/12/11 06:32:41;;;;;;;0.63;0.40;;;7.00;98.00;;;;;;5014665;28;20486;-73
2021/12/11 06:35:41;;;;;;;0.90;0.60;;;6.90;98.10;;;;;;5014538;28;20387;-74
2021/12/11 06:38:09;;;;;;;1.77;0.55;;;6.90;98.20;;;;;;5011496;28;20037;-74
2021/12/11 06:40:35;;;;;;;1.33;0.60;;;6.90;98.30;;;;;;5014420;28;20076;-71
2021/12/11 06:43:01;;;;;;;0.77;0.60;;;6.90;98.00;;;;;;5014643;28;20026;-75
2021/12/11 06:45:27;;;;;;;1.13;0.50;;;6.90;98.10;;;;;;5014538;28;20022;-75
2021/12/11 06:47:54;;;;;;;0.77;0.45;;;6.90;97.70;;;;;;5014103;28;20022;-71
2021/12/11 06:50:20;;;;;;;1.15;0.52;;;6.90;97.90;;;;;;5014177;28;20068;-74
2021/12/11 06:52:50;;;;;;;1.15;0.60;;;6.90;97.80;;;;;;4996455;28;20042;-75
2021/12/11 06:55:18;;;;;;;1.17;0.70;;;6.90;97.90;;;;;;5014015;28;20085;-72
2021/12/11 06:57:44;;;;;;;1.35;0.68;;;7.00;97.60;;;;;;4996339;28;20109;-73
2021/12/11 07:00:13;;;;;;;2.15;0.60;;;7.00;97.60;;;;;;5013980;28;20426;-72
2021/12/11 07:02:39;;;;;;;1.27;0.52;;;7.00;97.40;;;;;;5014035;28;20506;-70
2021/12/11 07:05:06;;;;;;;0.40;0.40;;;7.00;97.20;;;;;;5012740;28;20026;-71
2021/12/11 07:07:34;;;;;;;1.60;0.68;;;7.00;97.30;;;;;;5013887;28;20026;-74
2021/12/11 07:10:02;;;;;;;0.60;0.50;;;7.10;97.20;;;;;;5014163;28;20358;-75
2021/12/11 07:12:28;;;;;;;0.68;0.50;;;7.10;96.90;;;;;;4996299;28;20037;-72
2021/12/11 07:14:54;;;;;;;0.52;0.43;;;7.20;97.00;;;;;;5013836;28;20087;-75
2021/12/11 07:17:21;;;;;;;0.98;0.50;;;7.20;96.80;;;;;;4996006;28;20494;-75
2021/12/11 07:19:48;;;;;;;0.63;0.60;;;7.30;96.70;;;;;;5013572;28;20088;-73
2021/12/11 07:22:14;;;;;;;0.90;0.65;;;7.30;96.40;;;;;;5013474;28;20076;-75
2021/12/11 07:24:48;;;;;;;0.82;0.57;;;7.40;96.40;;;;;;4996028;28;20033;-74
2021/12/11 07:27:14;;;;;;;2.17;0.60;;;7.50;96.20;;;;;;5013409;28;20045;-73
2021/12/11 07:29:40;;;;;;;1.40;0.47;;;7.50;95.90;;;;;;5013651;28;20025;-74
2021/12/11 07:32:07;;;;;;;0.98;0.60;;;7.60;95.80;;;;;;5013445;28;20077;-74
2021/12/11 07:34:32;;;;;;;0.88;0.60;;;7.60;95.70;;;;;;5013365;28;20021;-74
2021/12/11 07:36:59;;;;;;;0.57;0.52;;;7.60;95.90;;;;;;5013470;28;20041;-74
2021/12/11 07:39:25;;;;;;;0.75;0.47;;;7.60;95.40;;;;;;5013384;28;20025;-75
2021/12/11 07:41:53;;;;;;;0.85;0.60;;;7.60;95.30;;;;;;5013205;28;20037;-75
2021/12/11 07:44:20;;;;;;;0.90;0.70;;;7.60;95.20;;;;;;5013217;28;20415;-72
2021/12/11 07:46:46;;;;;;;2.08;0.50;;;7.60;95.10;;;;;;5013089;28;20026;-73
2021/12/11 07:49:12;;;;;;;0.65;0.60;;;7.50;94.90;;;;;;5012616;28;20121;-75
2021/12/11 07:51:39;;;;;;;1.17;0.73;;;7.50;94.80;;;;;;5013456;28;20105;-72
2021/12/11 07:54:07;;;;;;;0.82;0.55;;;7.50;94.80;;;;;;4995946;28;20076;-70
2021/12/11 07:56:33;;;;;;;0.85;0.60;;;7.50;94.80;;;;;;5013117;28;20029;-72
2021/12/11 07:59:03;;;;;;;0.65;0.52;;;7.50;95.00;;;;;;4995104;28;20030;-70
2021/12/11 08:01:31;;;;;;;0.88;0.60;;;7.60;94.90;;;;;;4995583;28;20034;-71
2021/12/11 08:03:59;;;;;;;1.63;0.60;;;7.60;94.90;;;;;;5012804;28;20022;-70
2021/12/11 08:06:26;;;;;;;1.20;0.80;;;7.70;94.90;;;;;;5012800;28;20030;-71
2021/12/11 08:08:52;;;;;;;2.83;0.75;;;7.80;95.00;;;;;;5012914;28;20069;-72
2021/12/11 08:11:19;;;;;;;2.28;1.10;;;7.80;94.70;;;;;;4995565;28;20120;-75
2021/12/11 08:13:47;;;;;;;1.95;0.77;;;7.90;94.60;;;;;;5013250;28;20099;-79
2021/12/11 08:16:18;;;;;;;3.10;1.15;;;8.00;94.60;;;;;;5021851;28;20056;-77
2021/12/11 08:18:46;;;;;;;1.38;0.88;;;8.10;94.70;;;;;;5032889;28;20034;-76
2021/12/11 08:21:11;;;;;;;0.90;0.60;;;8.20;94.30;;;;;;5032664;28;20057;-75
2021/12/11 08:23:43;;;;;;;1.00;0.65;;;8.30;94.10;;;;;;5032791;28;20411;-76
2021/12/11 08:26:16;;;;;;;3.22;0.82;;;8.50;94.00;;;;;;5033188;28;20412;-77
2021/12/11 08:28:43;;;;;;;1.33;0.65;;;8.60;93.80;;;;;;5033232;28;20022;-74
2021/12/11 08:31:10;;;;;;;1.45;0.80;;;8.70;93.40;;;;;;5030841;28;20025;-79
2021/12/11 08:33:36;;;;;;;1.23;0.88;;;8.80;93.70;;;;;;5023045;28;20014;-75
2021/12/11 08:36:02;;;;;;;2.35;0.82;;;8.90;93.40;;;;;;5031517;28;20536;-72
2021/12/11 08:38:28;;;;;;;0.90;0.60;;;9.10;93.60;;;;;;5035072;28;20386;-69
2021/12/11 08:40:58;;;;;;;0.70;0.60;;;9.20;93.30;;;;;;5035183;28;20037;-70
2021/12/11 08:43:25;;;;;;;0.95;0.60;;;9.30;93.30;;;;;;5031329;28;20030;-73
2021/12/11 08:48:50;;;;;;;1.17;0.70;;;9.50;92.50;;;;;;4991948;28;20054;-69
2021/12/11 08:51:27;;;;;;;0.65;0.50;;;9.60;91.60;;;;;;5017911;28;20539;-71
2021/12/11 08:53:54;;;;;;;2.17;0.73;;;9.70;90.50;;;;;;5024934;28;20529;-68
2021/12/11 08:56:20;;;;;;;4.22;0.60;;;9.80;90.40;;;;;;5012745;28;20120;-72
2021/12/11 08:58:49;;;;;;;0.98;0.60;;;9.80;89.10;;;;;;5030144;28;20072;-72
2021/12/11 09:01:24;;;;;;;0.55;0.47;;;9.90;90.00;;;;;;5033308;28;20120;-68
2021/12/11 09:04:02;;;;;;;0.90;0.50;;;9.80;87.20;;;;;;5036022;28;20436;-73
2021/12/11 09:06:32;;;;;;;1.20;0.52;;;9.80;87.00;;;;;;5036207;28;20486;-71
2021/12/11 09:09:07;;;;;;;1.27;0.75;;;9.80;87.50;;;;;;5036073;28;20100;-75
2021/12/11 09:11:35;;;;;;;0.85;0.60;;;9.70;85.30;;;;;;5030284;28;20112;-73
2021/12/11 09:14:16;;;;;;;4.25;0.98;;;9.70;85.30;;;;;;5016084;28;20076;-74
2021/12/11 09:17:01;;;;;;;2.92;0.85;;;9.60;86.40;;;;;;5000605;28;20148;-72
2021/12/11 09:19:37;;;;;;;1.60;0.93;;;9.60;85.10;;;;;;5027540;28;20044;-74
2021/12/11 09:22:08;;;;;;;2.25;1.13;;;9.60;85.70;;;;;;5032823;28;20499;-76
2021/12/11 09:24:48;;;;;;;2.97;1.10;;;9.60;86.30;;;;;;5035904;28;20080;-73
2021/12/11 09:27:20;;;;;;;2.10;1.00;;;9.60;86.90;;;;;;5032401;28;20393;-75
2021/12/11 09:29:58;;;;;;;1.75;0.95;;;9.60;87.40;;;;;;5025591;28;20491;-76
2021/12/11 09:32:39;;;;;;;2.00;1.10;;;9.60;85.70;;;;;;5024416;28;20072;-73
2021/12/11 09:35:18;;;;;;;3.05;1.10;;;9.60;86.70;;;;;;5018788;28;20114;-76
2021/12/11 09:37:45;;;;;;;2.33;1.20;;;9.60;85.80;;;;;;5015919;28;20033;-75
2021/12/11 09:40:17;;;;;;;4.05;1.15;;;9.70;87.20;;;;;;5015757;28;20430;-73
2021/12/11 09:42:42;;;;;;;5.55;1.42;;;9.70;86.30;;;;;;5016035;28;20045;-75
2021/12/11 09:45:17;;;;;;;2.85;1.40;;;9.80;86.40;;;;;;5015853;28;20022;-75
2021/12/11 09:47:50;;;;;;;2.72;1.40;;;9.90;86.60;;;;;;5015539;28;20379;-71
2021/12/11 09:50:22;;;;;;;3.55;1.38;;;9.90;86.90;;;;;;5015120;28;20495;-72
2021/12/11 09:52:49;;;;;;;2.78;1.33;;;10.00;85.00;;;;;;5017798;28;20044;-72
2021/12/11 09:55:23;;;;;;;3.83;1.52;;;10.00;84.70;;;;;;5015115;28;20182;-71
2021/12/11 09:57:53;;;;;;;2.60;1.35;;;10.10;84.60;;;;;;5014732;28;20026;-74
2021/12/11 10:00:27;;;;;;;1.98;1.17;;;10.10;84.10;;;;;;5015248;28;20041;-70
2021/12/11 10:02:53;;;;;;;3.53;1.27;;;10.10;82.10;;;;;;5013877;28;20022;-72
2021/12/11 10:05:32;;;;;;;2.78;1.20;;;10.20;83.50;;;;;;5015582;28;20029;-71
2021/12/11 10:08:25;;;;;;;3.38;1.30;;;10.20;83.20;;;;;;5015342;28;20030;-74
2021/12/11 10:10:50;;;;;;;2.10;1.08;;;10.20;82.30;;;;;;5015157;28;20030;-74
2021/12/11 10:13:16;;;;;;;2.17;1.17;;;10.20;81.70;;;;;;5015343;28;20034;-72
2021/12/11 10:15:42;;;;;;;5.00;1.10;;;10.20;81.10;;;;;;5014884;28;20064;-73
2021/12/11 10:18:16;;;;;;;2.50;1.30;;;10.20;82.40;;;;;;4997516;28;20054;-71
2021/12/11 10:20:45;;;;;;;1.90;1.30;;;10.20;81.20;;;;;;4997040;28;20045;-73
2021/12/11 10:23:14;;;;;;;2.55;1.42;;;10.20;81.30;;;;;;5014847;28;20045;-73
2021/12/11 10:25:41;;;;;;;3.17;1.20;;;10.20;81.00;;;;;;5014638;28;20085;-72
2021/12/11 10:28:11;;;;;;;1.67;1.10;;;10.20;81.40;;;;;;4997157;28;20026;-72
2021/12/11 10:30:44;;;;;;;2.97;1.35;;;10.30;81.20;;;;;;5014682;28;20026;-70
2021/12/11 10:33:10;;;;;;;3.42;1.20;;;10.30;80.60;;;;;;5014588;28;20489;-73
2021/12/11 10:35:40;;;;;;;2.40;1.30;;;10.30;79.80;;;;;;4996922;28;20452;-71
2021/12/11 10:38:06;;;;;;;2.67;1.30;;;10.20;79.60;;;;;;5014475;28;20116;-71
2021/12/11 10:40:43;;;;;;;3.85;1.35;;;10.20;79.30;;;;;;5014199;28;20041;-71
2021/12/11 10:43:20;;;;;;;7.90;1.38;;;10.20;77.90;;;;;;5014790;28;20387;-71
2021/12/11 10:45:49;;;;;;;4.00;1.52;;;10.20;79.50;;;;;;5014336;28;20029;-71
2021/12/11 10:48:19;;;;;;;4.32;1.50;;;10.20;79.20;;;;;;5014303;28;20578;-75
2021/12/11 10:51:00;;;;;;;2.83;1.40;;;10.20;79.00;;;;;;5014327;28;20038;-71
2021/12/11 10:53:30;;;;;;;4.00;1.50;;;10.20;79.20;;;;;;5014487;28;20498;-75
2021/12/11 10:55:58;;;;;;;3.10;1.70;;;10.30;79.50;;;;;;5014080;28;20036;-70
2021/12/11 10:58:28;;;;;;;3.70;1.60;;;10.30;79.30;;;;;;5014555;28;20018;-71
2021/12/11 11:00:59;;;;;;;2.13;1.20;;;10.30;79.10;;;;;;5014037;28;20026;-71
2021/12/11 11:03:28;;;;;;;5.35;1.50;;;10.30;78.80;;;;;;4997050;28;20032;-72
2021/12/11 11:05:54;;;;;;;4.03;1.48;;;10.30;78.40;;;;;;5014386;28;20057;-74
2021/12/11 11:08:20;;;;;;;2.80;1.58;;;10.40;78.30;;;;;;5014182;28;20026;-72
2021/12/11 11:10:51;;;;;;;4.47;1.63;;;10.50;78.10;;;;;;5014188;28;20022;-72
2021/12/11 11:13:19;;;;;;;3.63;1.30;;;10.50;77.60;;;;;;5013999;28;20479;-75
2021/12/11 11:15:46;;;;;;;2.58;1.30;;;10.60;77.00;;;;;;5014490;28;20036;-74
2021/12/11 11:18:16;;;;;;;2.55;1.30;;;10.60;75.90;;;;;;4996390;28;20406;-76
2021/12/11 11:21:06;;;;;;;4.40;1.50;;;10.70;75.30;;;;;;4997035;28;20034;-72
2021/12/11 11:23:32;;;;;;;3.38;1.50;;;10.70;75.90;;;;;;5014898;28;20029;-72
2021/12/11 11:26:00;;;;;;;4.80;1.30;;;10.80;75.50;;;;;;5019511;28;20037;-73
2021/12/11 11:28:33;;;;;;;6.45;1.63;;;10.80;74.20;;;;;;5013657;28;20497;-72
2021/12/11 11:31:03;;;;;;;6.40;1.52;;;10.80;73.80;;;;;;5024559;28;20030;-72
2021/12/11 11:33:30;;;;;;;1.55;1.00;;;10.90;73.90;;;;;;5028376;28;20035;-78
2021/12/11 11:35:58;;;;;;;2.35;1.20;;;10.90;73.40;;;;;;5015887;28;20056;-74
2021/12/11 11:38:31;;;;;;;2.47;1.33;;;10.90;73.40;;;;;;5033368;28;20018;-74
2021/12/11 11:41:03;;;;;;;2.63;1.10;;;10.80;73.00;;;;;;5033302;28;20442;-72
2021/12/11 11:43:29;;;;;;;2.58;0.98;;;10.90;73.30;;;;;;5034006;28;20113;-72
2021/12/11 11:45:56;;;;;;;3.97;1.27;;;10.90;72.60;;;;;;5033630;28;20034;-71
2021/12/11 11:48:31;;;;;;;3.22;1.60;;;10.90;72.80;;;;;;5031503;28;20038;-72
2021/12/11 11:51:01;;;;;;;2.00;0.98;;;11.00;73.10;;;;;;5022082;28;20066;-70
2021/12/11 11:53:27;;;;;;;2.28;1.30;;;11.00;72.90;;;;;;5013433;28;20080;-72
2021/12/11 11:56:01;;;;;;;2.60;1.20;;;11.10;73.10;;;;;;5013952;28;20041;-72
2021/12/11 11:58:28;;;;;;;2.90;1.10;;;11.10;72.80;;;;;;5013617;28;20395;-75
2021/12/11 12:00:59;;;;;;;4.32;1.40;;;11.10;72.90;;;;;;5013374;28;20037;-69
2021/12/11 12:03:29;;;;;;;3.28;1.50;;;11.10;71.60;;;;;;5013155;28;20050;-75
2021/12/11 12:05:58;;;;;;;3.05;1.27;;;11.20;72.10;;;;;;5013225;28;20084;-75
2021/12/11 12:08:24;;;;;;;3.33;1.50;;;11.20;71.70;;;;;;5013376;28;20022;-70
2021/12/11 12:10:51;;;;;;;2.08;1.10;;;11.10;71.80;;;;;;5013071;28;20067;-72
2021/12/11 12:13:22;;;;;;;4.90;1.40;;;11.10;71.50;;;;;;5013095;28;20076;-74
2021/12/11 12:15:54;;;;;;;4.22;1.60;;;11.10;71.80;;;;;;4995923;28;20033;-69
2021/12/11 12:18:20;;;;;;;2.92;1.35;;;11.10;72.50;;;;;;5012945;28;20029;-72
2021/12/11 12:20:48;;;;;;;2.75;1.20;;;11.10;71.30;;;;;;5015211;28;20080;-70
2021/12/11 12:23:18;;;;;;;3.63;1.70;;;11.10;70.70;;;;;;5023659;28;20029;-71
2021/12/11 12:25:47;;;;;;;4.20;1.20;;;11.00;70.50;;;;;;5028603;28;20029;-71
2021/12/11 12:28:13;;;;;;;4.68;1.48;;;11.00;70.60;;;;;;5032517;28;20475;-75
2021/12/11 12:30:51;;;;;;;6.60;1.50;;;11.00;71.00;;;;;;5032997;28;20113;-72
2021/12/11 12:33:18;;;;;;;3.97;1.40;;;11.00;70.40;;;;;;5033038;28;20399;-73
2021/12/11 12:35:45;;;;;;;2.42;1.30;;;11.00;70.50;;;;;;5032351;28;20032;-74
2021/12/11 12:38:14;;;;;;;2.80;1.20;;;11.00;70.80;;;;;;5014825;28;20170;-70
2021/12/11 12:41:06;;;;;;;2.80;1.25;;;11.00;71.00;;;;;;5023966;28;20460;-75
2021/12/11 12:44:20;;;;;;;4.38;1.58;;;11.10;70.60;;;;;;5031807;28;20033;-74
2021/12/11 12:46:32;;;;;;;3.67;1.40;;;11.10;71.50;;;;;;5019646;28;20061;-72
2021/12/11 12:48:59;;;;;;;3.25;1.33;;;11.10;71.40;;;;;;5019516;28;20046;-73
2021/12/11 12:51:26;;;;;;;3.15;1.52;;;11.10;71.40;;;;;;4994694;28;20053;-73
2021/12/11 12:53:56;;;;;;;2.63;1.30;;;11.10;71.00;;;;;;5012698;28;20018;-76
2021/12/11 12:56:29;;;;;;;2.08;1.20;;;11.10;71.00;;;;;;5012465;28;20364;-75
2021/12/11 12:59:01;;;;;;;2.42;1.35;;;11.10;70.70;;;;;;5012670;28;20025;-73
2021/12/11 13:01:53;;;;;;;2.47;1.30;;;11.00;69.60;;;;;;5013033;28;20065;-73
2021/12/11 13:04:26;;;;;;;3.13;1.42;;;11.00;69.80;;;;;;5001915;28;20056;-77
2021/12/11 13:06:55;;;;;;;1.55;0.88;;;11.00;69.60;;;;;;5012593;28;20058;-70
2021/12/11 13:09:28;;;;;;;4.68;1.13;;;10.90;69.20;;;;;;5000933;28;20077;-74
2021/12/11 13:12:04;;;;;;;2.42;1.05;;;10.90;69.10;;;;;;5018276;28;20034;-74
2021/12/11 13:14:31;;;;;;;2.47;1.15;;;11.00;69.60;;;;;;5017587;28;20030;-74
2021/12/11 13:17:10;;;;;;;2.92;1.20;;;11.10;69.00;;;;;;5013476;28;20018;-72
2021/12/11 13:19:42;;;;;;;1.98;0.98;;;11.20;68.70;;;;;;5014059;28;20444;-73
2021/12/11 13:22:42;;;;;;;1.88;1.17;;;11.10;68.30;;;;;;5022779;28;20029;-75
2021/12/11 13:25:14;;;;;;;3.78;1.38;;;11.10;68.10;;;;;;5005896;28;20049;-76
2021/12/11 13:27:42;;;;;;;3.47;1.20;;;11.00;67.90;;;;;;5031964;28;20053;-75
2021/12/11 13:30:16;;;;;;;2.30;0.93;;;11.10;68.30;;;;;;5014392;28;20029;-80
2021/12/11 13:32:43;;;;;;;2.72;1.30;;;11.00;67.80;;;;;;5032197;28;20022;-74